createdAt,value
2022-12-23T00:00:19.991Z,4.50
2022-12-23T00:02:48.926Z,5.57
2022-12-23T00:05:16.683Z,5.38
2022-12-23T00:07:44.615Z,5.97
2022-12-23T00:10:12.819Z,4.30
2022-12-23T00:12:40.349Z,5.78
2022-12-23T00:15:10.175Z,8.70
2022-12-23T00:17:42.811Z,5.43
2022-12-23T00:20:13.768Z,5.70
2022-12-23T00:22:41.538Z,6.07
2022-12-23T00:25:09.469Z,6.53
2022-12-23T00:27:37.810Z,6.85
2022-12-23T00:30:07.756Z,4.80
2022-12-23T00:32:35.232Z,5.88
2022-12-23T00:35:02.703Z,5.90
2022-12-23T00:37:32.144Z,6.38
2022-12-23T00:40:05.882Z,5.93
2022-12-23T00:42:34.505Z,5.97
2022-12-23T00:45:01.947Z,6.30
2022-12-23T00:47:29.407Z,6.28
2022-12-23T00:49:56.882Z,6.85
2022-12-23T00:52:24.380Z,6.07
2022-12-23T00:54:53.281Z,5.10
2022-12-23T00:57:20.741Z,6.57
2022-12-23T00:59:48.311Z,7.68
2022-12-23T01:02:16.268Z,6.20
2022-12-23T01:04:43.922Z,6.25
2022-12-23T01:07:11.464Z,6.47
2022-12-23T01:09:38.948Z,5.35
2022-12-23T01:12:08.073Z,5.80
2022-12-23T01:14:35.863Z,7.72
2022-12-23T01:17:03.465Z,8.40
2022-12-23T01:19:30.972Z,5.95
2022-12-23T01:21:58.499Z,6.60
2022-12-23T01:24:28.242Z,7.75
2022-12-23T01:26:55.913Z,6.95
2022-12-23T01:29:25.051Z,7.43
2022-12-23T01:31:52.599Z,8.48
2022-12-23T01:34:20.339Z,6.68
2022-12-23T01:36:47.695Z,6.45
2022-12-23T01:39:15.404Z,7.50
2022-12-23T01:41:43.340Z,7.75
2022-12-23T01:44:59.804Z,8.40
2022-12-23T01:47:34.054Z,7.57
2022-12-23T01:50:06.667Z,6.95
2022-12-23T01:52:40.269Z,7.22
2022-12-23T01:55:08.363Z,7.10
2022-12-23T01:57:40.228Z,7.00
2022-12-23T02:00:11.163Z,7.93
2022-12-23T02:02:42.693Z,6.20
2022-12-23T02:05:10.229Z,6.25
2022-12-23T02:07:37.732Z,7.50
2022-12-23T02:10:06.223Z,6.45
2022-12-23T02:12:45.345Z,8.38
2022-12-23T02:15:32.950Z,9.57
2022-12-23T02:18:21.039Z,9.02
2022-12-23T02:21:08.773Z,8.27
2022-12-23T02:24:13.288Z,6.75
2022-12-23T02:27:05.689Z,7.53
2022-12-23T02:30:17.341Z,10.18
2022-12-23T02:32:58.991Z,8.80
2022-12-23T02:35:32.245Z,8.73
2022-12-23T02:38:09.334Z,10.00
2022-12-23T02:40:41.342Z,8.30
2022-12-23T02:43:16.835Z,9.57
2022-12-23T02:45:49.579Z,9.05
2022-12-23T02:48:27.659Z,8.40
2022-12-23T02:51:14.488Z,8.38
2022-12-23T02:53:47.429Z,8.45
2022-12-23T02:56:18.415Z,8.82
2022-12-23T02:58:51.287Z,9.38
2022-12-23T03:01:20.837Z,8.07
2022-12-23T03:03:51.833Z,11.93
2022-12-23T03:06:23.284Z,11.10
2022-12-23T03:08:53.594Z,12.23
2022-12-23T03:11:21.377Z,13.88
2022-12-23T03:14:15.961Z,14.43
2022-12-23T03:16:53.260Z,12.20
2022-12-23T03:19:31.021Z,16.65
2022-12-23T03:22:07.440Z,14.13
2022-12-23T03:24:41.794Z,13.10
2022-12-23T03:27:16.272Z,11.75
2022-12-23T03:29:52.081Z,13.05
2022-12-23T03:32:22.553Z,11.35
2022-12-23T03:34:54.583Z,12.65
2022-12-23T03:37:24.975Z,14.82
2022-12-23T03:39:59.006Z,13.82
2022-12-23T03:42:29.472Z,12.90
2022-12-23T03:45:36.526Z,14.30
2022-12-23T03:47:52.357Z,14.73
2022-12-23T03:50:24.247Z,12.55
2022-12-23T03:52:56.323Z,12.73
2022-12-23T03:55:27.869Z,12.45
2022-12-23T03:58:02.366Z,13.77
2022-12-23T04:00:36.075Z,12.80
2022-12-23T04:03:10.879Z,12.32
2022-12-23T04:05:43.444Z,11.50
2022-12-23T04:08:14.839Z,10.40
2022-12-23T04:10:42.660Z,13.02
2022-12-23T04:13:10.253Z,12.38
2022-12-23T04:15:40.654Z,15.65
2022-12-23T04:18:09.591Z,11.88
2022-12-23T04:20:38.242Z,12.47
2022-12-23T04:23:07.503Z,10.98
2022-12-23T04:25:34.981Z,14.43
2022-12-23T04:28:02.743Z,18.33
2022-12-23T04:30:34.321Z,16.40
2022-12-23T04:33:02.896Z,14.38
2022-12-23T04:35:30.391Z,13.25
2022-12-23T04:37:57.911Z,14.18
2022-12-23T04:40:27.001Z,12.48
2022-12-23T04:42:54.369Z,11.52
2022-12-23T04:45:21.855Z,15.65
2022-12-23T04:47:49.845Z,13.00
2022-12-23T04:50:17.583Z,12.93
2022-12-23T04:52:45.619Z,11.23
2022-12-23T04:55:13.181Z,13.27
2022-12-23T04:57:42.175Z,17.08
2022-12-23T05:00:10.883Z,12.90
2022-12-23T05:02:39.658Z,14.02
2022-12-23T05:05:08.414Z,16.30
2022-12-23T05:07:36.160Z,13.23
2022-12-23T05:10:04.031Z,17.05
2022-12-23T05:12:31.900Z,17.38
2022-12-23T05:15:00.809Z,15.73
2022-12-23T05:17:28.653Z,13.10
2022-12-23T05:19:56.218Z,16.70
2022-12-23T05:22:23.733Z,16.98
2022-12-23T05:24:51.142Z,17.63
2022-12-23T05:27:18.773Z,16.13
2022-12-23T05:29:46.350Z,14.05
2022-12-23T05:32:15.247Z,13.00
2022-12-23T05:34:43.244Z,14.47
2022-12-23T05:37:10.735Z,13.55
2022-12-23T05:39:38.138Z,11.57
2022-12-23T05:42:06.312Z,15.98
2022-12-23T05:44:34.109Z,14.93
2022-12-23T05:47:01.897Z,15.20
2022-12-23T05:49:30.917Z,20.33
2022-12-23T05:51:58.633Z,19.65
2022-12-23T05:54:26.065Z,18.92
2022-12-23T05:56:53.736Z,21.77
2022-12-23T05:59:21.215Z,20.92
2022-12-23T06:01:49.326Z,20.33
2022-12-23T06:04:17.060Z,12.68
2022-12-23T06:06:46.013Z,18.98
2022-12-23T06:09:13.845Z,23.63
2022-12-23T06:11:41.336Z,24.52
2022-12-23T06:14:08.930Z,24.80
2022-12-23T06:16:36.485Z,27.80
2022-12-23T06:19:04.426Z,24.08
2022-12-23T06:21:32.051Z,17.00
2022-12-23T06:24:01.558Z,22.73
2022-12-23T06:26:29.327Z,29.02
2022-12-23T06:28:57.463Z,25.60
2022-12-23T06:31:24.924Z,19.88
2022-12-23T06:33:52.642Z,27.30
2022-12-23T06:36:20.311Z,19.90
2022-12-23T06:38:47.831Z,23.55
2022-12-23T06:41:16.819Z,26.77
2022-12-23T06:43:44.380Z,22.40
2022-12-23T06:46:11.900Z,24.63
2022-12-23T06:48:39.807Z,25.70
2022-12-23T06:51:07.365Z,26.10
2022-12-23T06:53:34.937Z,23.80
2022-12-23T06:56:03.924Z,28.60
2022-12-23T06:58:32.964Z,20.77
2022-12-23T07:01:01.468Z,19.48
2022-12-23T07:03:29.081Z,25.02
2022-12-23T07:05:56.686Z,21.27
2022-12-23T07:08:24.352Z,18.63
2022-12-23T07:10:58.096Z,15.65
2022-12-23T07:13:25.762Z,21.08
2022-12-23T07:15:54.734Z,19.02
2022-12-23T07:18:22.355Z,23.23
2022-12-23T07:20:50.023Z,20.17
2022-12-23T07:23:18.037Z,22.83
2022-12-23T07:25:46.319Z,18.58
2022-12-23T07:28:13.895Z,28.25
2022-12-23T07:30:41.511Z,28.52
2022-12-23T07:33:11.048Z,22.27
2022-12-23T07:35:38.859Z,57.88
2022-12-23T07:38:06.466Z,54.40
2022-12-23T07:40:34.527Z,36.85
2022-12-23T07:43:02.417Z,67.38
2022-12-23T07:45:30.659Z,60.72
2022-12-23T07:48:00.039Z,93.65
2022-12-23T07:50:29.144Z,73.25
2022-12-23T07:52:57.101Z,102.85
2022-12-23T07:55:24.523Z,91.68
2022-12-23T07:57:52.978Z,76.60
2022-12-23T08:00:21.370Z,125.50
2022-12-23T08:02:49.365Z,107.57
2022-12-23T08:05:17.122Z,166.93
2022-12-23T08:07:46.798Z,142.20
2022-12-23T08:10:14.688Z,141.60
2022-12-23T08:12:42.429Z,146.50
2022-12-23T08:15:10.252Z,121.88
2022-12-23T08:17:37.690Z,127.72
2022-12-23T08:20:06.166Z,113.35
2022-12-23T08:22:33.649Z,94.35
2022-12-23T08:25:02.673Z,101.35
2022-12-23T08:27:30.361Z,90.25
2022-12-23T08:29:57.913Z,63.90
2022-12-23T08:32:27.938Z,66.90
2022-12-23T08:34:56.801Z,76.32
2022-12-23T08:37:24.648Z,79.00
2022-12-23T08:39:52.211Z,67.57
2022-12-23T08:42:22.421Z,55.42
2022-12-23T08:44:50.004Z,55.67
2022-12-23T08:47:17.777Z,68.00
2022-12-23T08:49:45.463Z,56.67
2022-12-23T08:52:13.467Z,54.30
2022-12-23T08:54:41.228Z,37.47
2022-12-23T08:57:08.838Z,43.45
2022-12-23T08:59:38.240Z,53.13
2022-12-23T09:02:07.226Z,48.28
2022-12-23T09:04:36.811Z,48.75
2022-12-23T09:07:04.371Z,44.08
2022-12-23T09:09:32.710Z,47.95
2022-12-23T09:12:00.232Z,39.55
2022-12-23T09:14:27.825Z,49.42
2022-12-23T09:16:56.790Z,51.63
2022-12-23T09:19:24.258Z,48.20
2022-12-23T09:21:51.766Z,46.47
2022-12-23T09:24:19.333Z,51.83
2022-12-23T09:26:46.843Z,63.28
2022-12-23T09:29:14.445Z,52.90
2022-12-23T09:31:42.057Z,65.47
2022-12-23T09:34:12.059Z,53.85
2022-12-23T09:36:39.735Z,57.78
2022-12-23T09:39:07.254Z,77.70
2022-12-23T09:41:47.045Z,97.93
2022-12-23T09:44:33.070Z,82.75
2022-12-23T09:47:05.124Z,97.70
2022-12-23T09:49:35.186Z,100.57
2022-12-23T09:52:09.294Z,69.78
2022-12-23T09:54:42.286Z,74.65
2022-12-23T09:57:21.237Z,73.30
2022-12-23T10:00:02.178Z,59.85
2022-12-23T10:02:56.871Z,64.40
2022-12-23T10:05:35.851Z,61.30
2022-12-23T10:08:11.833Z,73.05
2022-12-23T10:10:43.978Z,93.07
2022-12-23T10:13:20.513Z,85.97
2022-12-23T10:15:50.736Z,100.65
2022-12-23T10:18:24.671Z,88.40
2022-12-23T10:20:57.563Z,67.90
2022-12-23T10:23:31.592Z,68.30
2022-12-23T10:26:00.681Z,123.68
2022-12-23T10:28:33.179Z,78.45
2022-12-23T10:31:38.827Z,71.28
2022-12-23T10:34:00.841Z,67.80
2022-12-23T10:36:40.408Z,74.80
2022-12-23T10:39:19.316Z,67.82
2022-12-23T10:42:00.592Z,83.28
2022-12-23T10:45:01.545Z,92.72
2022-12-23T10:47:38.946Z,84.20
2022-12-23T10:50:26.273Z,76.82
2022-12-23T10:52:59.044Z,101.47
2022-12-23T10:55:33.427Z,72.78
2022-12-23T10:58:08.215Z,71.90
2022-12-23T11:00:41.254Z,76.22
2022-12-23T11:03:17.828Z,98.03
2022-12-23T11:05:46.832Z,103.47
2022-12-23T11:08:16.544Z,77.95
2022-12-23T11:10:45.221Z,76.63
2022-12-23T11:13:25.295Z,73.10
2022-12-23T11:15:52.998Z,76.95
2022-12-23T11:18:21.459Z,85.28
2022-12-23T11:21:03.650Z,92.20
2022-12-23T11:23:34.498Z,60.55
2022-12-23T11:26:04.458Z,63.80
2022-12-23T11:28:34.395Z,76.47
2022-12-23T11:33:33.057Z,89.57
2022-12-23T11:36:03.894Z,79.43
2022-12-23T11:38:34.083Z,89.95
2022-12-23T11:41:03.294Z,66.55
2022-12-23T11:43:33.638Z,53.00
2022-12-23T11:46:24.351Z,52.20
2022-12-23T11:49:05.910Z,51.45
2022-12-23T11:51:33.561Z,47.92
2022-12-23T11:54:03.689Z,48.72
2022-12-23T11:56:37.892Z,42.53
2022-12-23T11:59:08.593Z,54.50
2022-12-23T12:01:36.722Z,39.55
2022-12-23T12:04:08.628Z,39.45
2022-12-23T12:06:42.835Z,42.65
2022-12-23T12:09:13.177Z,42.20
2022-12-23T12:11:48.828Z,44.40
2022-12-23T12:14:23.388Z,39.03
2022-12-23T12:16:57.869Z,35.72
2022-12-23T12:19:30.485Z,45.10
2022-12-23T12:22:04.931Z,54.33
2022-12-23T12:24:40.052Z,47.60
2022-12-23T12:27:08.634Z,49.35
2022-12-23T12:29:41.983Z,48.15
2022-12-23T12:32:19.277Z,44.80
2022-12-23T12:34:53.348Z,40.80
2022-12-23T12:37:30.050Z,55.78
2022-12-23T12:40:01.536Z,51.78
2022-12-23T12:42:35.320Z,35.38
2022-12-23T12:45:14.544Z,32.97
2022-12-23T12:47:54.470Z,37.85
2022-12-23T12:50:28.038Z,43.67
2022-12-23T12:53:01.148Z,43.70
2022-12-23T12:55:33.938Z,40.03
2022-12-23T12:58:02.168Z,39.28
2022-12-23T13:00:39.846Z,33.78
2022-12-23T13:03:25.189Z,36.17
2022-12-23T13:06:07.057Z,34.60
2022-12-23T13:09:01.022Z,44.60
2022-12-23T13:11:38.984Z,30.20
2022-12-23T13:14:21.285Z,29.05
2022-12-23T13:16:57.786Z,34.72
2022-12-23T13:19:33.808Z,37.90
2022-12-23T13:22:08.796Z,36.55
2022-12-23T13:24:51.900Z,28.95
2022-12-23T13:27:27.728Z,33.85
2022-12-23T13:30:05.513Z,29.95
2022-12-23T13:33:02.218Z,31.58
2022-12-23T13:35:55.470Z,30.38
2022-12-23T13:38:36.757Z,29.63
2022-12-23T13:41:10.852Z,31.75
2022-12-23T13:43:47.185Z,36.53
2022-12-23T13:46:24.662Z,28.33
2022-12-23T13:48:57.876Z,31.42
2022-12-23T13:51:33.313Z,24.83
2022-12-23T13:54:08.707Z,26.70
2022-12-23T13:56:43.105Z,34.30
2022-12-23T13:59:14.640Z,26.67
2022-12-23T14:01:49.818Z,27.05
2022-12-23T14:04:36.840Z,26.75
2022-12-23T14:07:17.510Z,25.55
2022-12-23T14:09:51.065Z,25.20
2022-12-23T14:12:27.051Z,26.77
2022-12-23T14:15:20.267Z,27.73
2022-12-23T14:18:04.532Z,22.00
2022-12-23T14:20:44.458Z,26.33
2022-12-23T14:23:28.902Z,22.70
2022-12-23T14:26:19.314Z,30.25
2022-12-23T14:29:08.128Z,23.55
2022-12-23T14:31:40.606Z,22.52
2022-12-23T14:34:28.405Z,25.38
2022-12-23T14:37:29.000Z,27.33
2022-12-23T14:39:56.674Z,22.17
2022-12-23T14:42:35.182Z,24.83
2022-12-23T14:45:34.054Z,22.08
2022-12-23T14:48:24.373Z,17.08
2022-12-23T14:51:00.284Z,24.42
2022-12-23T14:53:28.841Z,29.42
2022-12-23T14:56:21.707Z,20.75
2022-12-23T14:59:15.795Z,22.58
2022-12-23T15:01:48.391Z,22.73
2022-12-23T15:04:20.831Z,23.85
2022-12-23T15:06:52.192Z,22.67
2022-12-23T15:09:24.974Z,17.02
2022-12-23T15:11:53.710Z,22.52
2022-12-23T15:14:30.665Z,16.58
2022-12-23T15:16:58.192Z,17.35
2022-12-23T15:19:28.640Z,19.95
2022-12-23T15:22:17.826Z,17.63
2022-12-23T15:24:48.528Z,19.25
2022-12-23T15:27:27.093Z,19.50
2022-12-23T15:32:25.265Z,43.53
2022-12-23T15:35:01.262Z,233.65
2022-12-23T15:37:31.663Z,119.45
2022-12-23T15:40:06.476Z,71.28
2022-12-23T15:42:47.499Z,64.07
2022-12-23T15:45:37.336Z,63.35
2022-12-23T15:48:07.162Z,51.00
2022-12-23T15:53:08.488Z,45.25
2022-12-23T15:55:39.893Z,39.47
2022-12-23T15:58:07.711Z,29.95
2022-12-23T16:00:39.901Z,32.13
2022-12-23T16:03:23.065Z,39.03
2022-12-23T16:05:52.674Z,36.35
2022-12-23T16:08:29.959Z,27.27
2022-12-23T16:11:05.613Z,31.10
2022-12-23T16:13:33.520Z,31.70
2022-12-23T16:16:29.580Z,25.85
2022-12-23T16:18:58.349Z,22.35
2022-12-23T16:21:32.955Z,30.40
2022-12-23T16:24:03.260Z,24.73
2022-12-23T16:26:30.919Z,28.02
2022-12-23T16:29:01.626Z,27.90
2022-12-23T16:31:29.717Z,27.52
2022-12-23T16:33:59.322Z,22.95
2022-12-23T16:36:37.425Z,27.38
2022-12-23T16:39:19.369Z,23.73
2022-12-23T16:41:47.620Z,23.60
2022-12-23T16:44:16.472Z,22.27
2022-12-23T16:46:46.642Z,19.42
2022-12-23T16:49:17.022Z,19.50
2022-12-23T16:51:46.222Z,19.60
2022-12-23T16:54:16.107Z,22.20
2022-12-23T16:59:11.374Z,21.00
2022-12-23T17:01:40.909Z,19.38
2022-12-23T17:04:10.001Z,17.85
2022-12-23T17:06:38.001Z,17.05
2022-12-23T17:09:08.116Z,18.55
2022-12-23T17:11:39.448Z,17.25
2022-12-23T17:14:13.516Z,15.77
2022-12-23T17:16:43.359Z,19.58
2022-12-23T17:19:11.092Z,18.52
2022-12-23T17:21:40.161Z,17.58
2022-12-23T17:24:14.097Z,16.42
2022-12-23T17:26:41.834Z,15.70
2022-12-23T17:29:11.704Z,16.83
2022-12-23T17:31:40.773Z,15.13
2022-12-23T17:34:14.394Z,19.40
2022-12-23T17:36:47.625Z,15.98
2022-12-23T17:39:18.864Z,13.85
2022-12-23T17:41:46.750Z,13.00
2022-12-23T17:44:16.386Z,16.65
2022-12-23T17:46:45.059Z,15.85
2022-12-23T17:49:13.156Z,14.00
2022-12-23T17:51:41.725Z,16.20
2022-12-23T17:54:21.076Z,12.57
2022-12-23T17:56:48.564Z,13.93
2022-12-23T17:59:16.033Z,15.70
2022-12-23T18:01:44.260Z,12.23
2022-12-23T18:04:11.717Z,17.17
2022-12-23T18:06:39.251Z,15.48
2022-12-23T18:09:06.907Z,13.52
2022-12-23T18:11:39.198Z,12.50
2022-12-23T18:14:13.318Z,12.23
2022-12-23T18:16:40.801Z,12.00
2022-12-23T18:19:15.108Z,13.05
2022-12-23T18:21:42.601Z,12.20
2022-12-23T18:24:11.507Z,14.70
2022-12-23T18:26:40.550Z,10.48
2022-12-23T18:29:08.035Z,11.68
2022-12-23T18:31:37.945Z,9.90
2022-12-23T18:34:05.499Z,12.25
2022-12-23T18:36:34.111Z,9.52
2022-12-23T18:39:01.908Z,10.57
2022-12-23T18:41:29.389Z,11.38
2022-12-23T18:43:58.253Z,10.35
2022-12-23T18:46:25.889Z,11.83
2022-12-23T18:48:53.628Z,9.32
2022-12-23T18:51:21.875Z,10.80
2022-12-23T18:53:49.607Z,11.13
2022-12-23T18:56:18.874Z,11.85
2022-12-23T18:58:46.388Z,13.73
2022-12-23T19:01:16.635Z,17.85
2022-12-23T19:03:44.867Z,10.70
2022-12-23T19:06:14.369Z,12.30
2022-12-23T19:08:43.124Z,11.95
2022-12-23T19:11:11.749Z,16.13
2022-12-23T19:13:39.259Z,15.80
2022-12-23T19:16:07.500Z,11.75
2022-12-23T19:18:36.543Z,15.93
2022-12-23T19:21:05.036Z,15.57
2022-12-23T19:23:32.573Z,15.07
2022-12-23T19:25:59.986Z,9.25
2022-12-23T19:28:27.478Z,13.95
2022-12-23T19:30:55.021Z,12.30
2022-12-23T19:33:22.666Z,17.38
2022-12-23T19:35:52.147Z,14.52
2022-12-23T19:38:19.654Z,12.00
2022-12-23T19:40:56.632Z,8.95
2022-12-23T19:43:24.643Z,13.30
2022-12-23T19:45:57.795Z,12.60
2022-12-23T19:48:25.565Z,18.75
2022-12-23T19:50:58.825Z,13.07
2022-12-23T19:53:26.699Z,13.27
2022-12-23T19:55:59.171Z,13.73
2022-12-23T19:58:27.947Z,10.82
2022-12-23T20:01:06.557Z,11.85
2022-12-23T20:03:34.174Z,11.63
2022-12-23T20:06:03.801Z,13.10
2022-12-23T20:08:31.434Z,15.85
2022-12-23T20:11:10.855Z,12.32
2022-12-23T20:13:38.945Z,14.38
2022-12-23T20:16:07.424Z,18.25
2022-12-23T20:18:35.204Z,13.18
2022-12-23T20:21:04.424Z,11.15
2022-12-23T20:23:32.127Z,10.80
2022-12-23T20:25:59.642Z,15.93
2022-12-23T20:28:27.158Z,12.05
2022-12-23T20:31:05.669Z,12.20
2022-12-23T20:33:33.445Z,12.18
2022-12-23T20:36:00.876Z,13.52
2022-12-23T20:38:29.836Z,12.13
2022-12-23T20:40:57.275Z,10.63
2022-12-23T20:43:24.752Z,13.15
2022-12-23T20:45:52.297Z,9.40
2022-12-23T20:48:19.925Z,10.60
2022-12-23T20:50:47.433Z,9.35
2022-12-23T20:53:15.151Z,9.95
2022-12-23T20:55:44.544Z,9.60
2022-12-23T20:58:11.995Z,9.80
2022-12-23T21:00:39.447Z,9.32
2022-12-23T21:03:10.586Z,8.90
2022-12-23T21:05:38.428Z,9.50
2022-12-23T21:08:05.965Z,8.20
2022-12-23T21:10:33.919Z,12.35
2022-12-23T21:13:03.635Z,8.65
2022-12-23T21:15:31.655Z,8.93
2022-12-23T21:17:59.355Z,11.00
2022-12-23T21:20:26.908Z,7.72
2022-12-23T21:22:54.447Z,10.43
2022-12-23T21:25:22.039Z,9.70
2022-12-23T21:27:51.148Z,9.77
2022-12-23T21:30:20.255Z,8.85
2022-12-23T21:32:47.945Z,10.73
2022-12-23T21:35:15.617Z,8.05
2022-12-23T21:37:43.079Z,7.55
2022-12-23T21:40:11.810Z,12.45
2022-12-23T21:42:39.308Z,12.90
2022-12-23T21:45:07.962Z,17.70
2022-12-23T21:47:36.960Z,16.27
2022-12-23T21:50:05.064Z,10.60
2022-12-23T21:52:32.600Z,10.85
2022-12-23T21:55:00.168Z,11.73
2022-12-23T21:57:27.627Z,12.57
2022-12-23T21:59:55.145Z,11.70
2022-12-23T22:02:23.255Z,10.65
2022-12-23T22:04:52.295Z,11.40
2022-12-23T22:07:19.724Z,12.40
2022-12-23T22:09:47.333Z,9.65
2022-12-23T22:12:14.778Z,9.55
2022-12-23T22:14:42.300Z,9.63
2022-12-23T22:17:10.335Z,9.10
2022-12-23T22:19:37.741Z,10.30
2022-12-23T22:22:06.555Z,10.93
2022-12-23T22:24:34.080Z,7.93
2022-12-23T22:27:01.547Z,9.90
2022-12-23T22:29:29.092Z,7.45
2022-12-23T22:31:56.600Z,10.48
2022-12-23T22:34:24.160Z,9.07
2022-12-23T22:36:51.850Z,8.07
2022-12-23T22:39:21.966Z,10.90
2022-12-23T22:41:50.740Z,10.45
2022-12-23T22:44:19.453Z,8.15
2022-12-23T22:46:47.191Z,8.85
2022-12-23T22:49:15.705Z,9.57
2022-12-23T22:51:43.868Z,9.93
2022-12-23T22:54:11.370Z,9.90
2022-12-23T22:56:40.802Z,7.75
2022-12-23T22:59:12.912Z,8.80
2022-12-23T23:01:40.409Z,9.60
2022-12-23T23:04:07.941Z,8.52
2022-12-23T23:06:37.419Z,8.65
2022-12-23T23:09:06.331Z,7.95
2022-12-23T23:11:33.877Z,12.13
2022-12-23T23:14:02.786Z,10.68
2022-12-23T23:16:30.555Z,8.57
2022-12-23T23:18:58.913Z,7.75
2022-12-23T23:21:26.744Z,8.95
2022-12-23T23:23:54.269Z,6.95
2022-12-23T23:26:22.011Z,8.52
2022-12-23T23:28:49.474Z,8.95
2022-12-23T23:34:06.411Z,8.23
2022-12-23T23:36:34.052Z,8.55
2022-12-23T23:39:01.649Z,8.38
2022-12-23T23:41:29.611Z,7.43
2022-12-23T23:43:57.060Z,7.72
2022-12-23T23:46:26.174Z,7.22
2022-12-23T23:48:53.706Z,7.78
2022-12-23T23:51:21.207Z,8.52
2022-12-23T23:53:48.701Z,7.07
2022-12-23T23:56:20.402Z,9.02
2022-12-23T23:58:51.372Z,7.70
